createdAt,value
2022-10-28T06:10:35.021Z,10.70
2022-10-28T06:13:01.720Z,10.70
2022-10-28T06:22:59.873Z,10.80
2022-10-28T06:25:30.010Z,10.80
2022-10-28T06:28:01.143Z,10.80
2022-10-28T06:30:29.539Z,10.80
2022-10-28T06:33:03.070Z,10.80
2022-10-28T06:40:35.305Z,11.00
2022-10-28T06:43:07.013Z,11.00
2022-10-28T06:45:36.080Z,11.00
2022-10-28T06:58:05.168Z,11.20
2022-10-28T07:00:33.700Z,11.20
2022-10-28T07:03:05.509Z,11.30
2022-10-28T07:08:04.378Z,11.40
2022-10-28T07:10:32.838Z,11.50
2022-10-28T07:20:33.045Z,11.80
2022-10-28T07:23:03.991Z,11.90
2022-10-28T07:25:33.036Z,12.00
2022-10-28T07:28:02.090Z,12.00
2022-10-28T07:37:59.937Z,8.20
2022-10-28T07:40:38.087Z,12.50
2022-10-28T07:50:35.659Z,12.90
2022-10-28T08:01:20.579Z,13.60
2022-10-28T08:03:51.577Z,13.50
2022-10-28T08:06:25.637Z,13.80
2022-10-28T08:08:56.833Z,14.00
2022-10-28T08:11:28.352Z,14.10
2022-10-28T08:16:27.152Z,14.30
2022-10-28T08:21:34.939Z,14.80
2022-10-28T08:24:03.043Z,15.00
2022-10-28T08:26:33.152Z,15.50
2022-10-28T08:31:34.289Z,15.70
2022-10-28T08:36:32.202Z,15.90
2022-10-28T08:41:48.950Z,16.20
2022-10-28T08:47:24.076Z,16.40
2022-10-28T08:50:02.444Z,16.50
2022-10-28T08:52:36.537Z,16.60
2022-10-28T08:55:11.058Z,16.60
2022-10-28T08:57:47.303Z,16.80
2022-10-28T09:00:23.172Z,16.80
2022-10-28T09:03:16.764Z,16.90
2022-10-28T09:05:50.583Z,17.00
2022-10-28T09:08:24.788Z,17.00
2022-10-28T09:11:12.742Z,17.00
2022-10-28T09:13:54.513Z,18.80
2022-10-28T09:16:32.877Z,17.20
2022-10-28T09:19:07.183Z,17.20
2022-10-28T09:21:43.326Z,17.30
2022-10-28T09:24:19.074Z,17.20
2022-10-28T09:26:55.669Z,17.40
2022-10-28T09:29:44.510Z,17.10
2022-10-28T09:32:22.994Z,17.80
2022-10-28T09:34:57.793Z,17.80
2022-10-28T09:37:30.490Z,17.30
2022-10-28T09:40:06.303Z,17.30
2022-10-28T09:42:48.655Z,17.50
2022-10-28T09:45:25.443Z,17.60
2022-10-28T09:47:59.707Z,17.70
2022-10-28T09:50:31.788Z,17.80
2022-10-28T09:53:07.742Z,17.70
2022-10-28T09:58:13.879Z,17.80
2022-10-28T10:03:12.156Z,17.90
2022-10-28T10:05:45.980Z,18.00
2022-10-28T10:08:16.954Z,18.10
2022-10-28T10:10:50.445Z,18.20
2022-10-28T10:13:22.957Z,18.30
2022-10-28T10:15:56.122Z,18.80
2022-10-28T10:18:28.872Z,18.80
2022-10-28T10:20:58.889Z,19.30
2022-10-28T10:23:33.291Z,19.30
2022-10-28T10:26:08.062Z,19.60
2022-10-28T10:28:45.121Z,19.80
2022-10-28T10:31:40.228Z,19.90
2022-10-28T10:34:25.217Z,19.90
2022-10-28T10:37:01.574Z,20.10
2022-10-28T10:39:46.409Z,20.10
2022-10-28T10:42:18.490Z,20.20
2022-10-28T10:47:25.358Z,20.80
2022-10-28T10:49:56.423Z,21.00
2022-10-28T10:52:26.690Z,21.20
2022-10-28T10:55:09.904Z,21.40
2022-10-28T10:57:39.432Z,21.60
2022-10-28T11:00:16.764Z,21.80
2022-10-28T11:02:52.224Z,21.80
2022-10-28T11:05:29.123Z,21.70
2022-10-28T11:10:38.054Z,21.50
2022-10-28T11:13:26.779Z,21.30
2022-10-28T11:16:16.486Z,21.30
2022-10-28T11:18:48.874Z,21.30
2022-10-28T11:21:43.319Z,21.20
2022-10-28T11:24:36.419Z,22.90
2022-10-28T11:27:14.174Z,20.00
2022-10-28T11:29:42.522Z,21.50
2022-10-28T11:32:22.901Z,21.70
2022-10-28T11:35:23.768Z,21.90
2022-10-28T11:38:10.513Z,25.40
2022-10-28T11:40:49.792Z,20.80
2022-10-28T11:43:27.913Z,24.90
2022-10-28T11:46:09.806Z,22.30
2022-10-28T11:48:47.739Z,25.00
2022-10-28T11:51:28.411Z,22.40
2022-10-28T11:54:20.524Z,22.60
2022-10-28T11:56:51.354Z,22.50
2022-10-28T11:59:45.681Z,24.50
2022-10-28T12:02:28.641Z,22.50
2022-10-28T12:05:05.026Z,22.60
2022-10-28T12:08:13.539Z,22.80
2022-10-28T12:10:58.466Z,23.00
2022-10-28T12:13:37.672Z,22.90
2022-10-28T12:16:14.371Z,21.00
2022-10-28T12:18:49.943Z,25.90
2022-10-28T12:24:19.583Z,23.80
2022-10-28T12:27:00.750Z,24.40
2022-10-28T12:29:33.796Z,24.20
2022-10-28T12:32:05.784Z,24.40
2022-10-28T12:37:09.348Z,24.70
2022-10-28T12:39:43.500Z,24.50
2022-10-28T12:42:27.126Z,24.50
2022-10-28T12:44:59.470Z,24.40
2022-10-28T12:47:39.118Z,24.60
2022-10-28T12:50:18.531Z,24.40
2022-10-28T12:52:55.567Z,24.40
2022-10-28T12:55:34.498Z,24.50
2022-10-28T12:58:12.136Z,24.80
2022-10-28T13:00:45.491Z,24.70
2022-10-28T13:03:15.357Z,24.50
2022-10-28T13:05:47.778Z,24.40
2022-10-28T13:08:41.649Z,21.80
2022-10-28T13:11:49.791Z,24.10
2022-10-28T13:14:35.152Z,24.70
2022-10-28T13:17:21.789Z,25.40
2022-10-28T13:20:03.274Z,25.10
2022-10-28T13:22:53.308Z,26.90
2022-10-28T13:25:38.290Z,27.40
2022-10-28T13:28:10.828Z,28.00
2022-10-28T13:30:57.014Z,28.10
2022-10-28T13:33:46.233Z,28.00
2022-10-28T13:39:26.778Z,27.70
2022-10-28T13:48:57.985Z,27.10
2022-10-28T13:52:01.565Z,27.40
2022-10-28T13:54:35.906Z,27.60
2022-10-28T13:57:11.430Z,28.10
2022-10-28T13:59:53.367Z,28.00
2022-10-28T14:02:37.379Z,28.20
2022-10-28T14:05:09.000Z,28.20
2022-10-28T14:07:51.899Z,28.40
2022-10-28T14:10:25.949Z,28.50
2022-10-28T14:17:00.878Z,27.50
2022-10-28T14:22:09.879Z,27.40
2022-10-28T14:24:41.426Z,27.20
2022-10-28T14:27:31.729Z,27.10
2022-10-28T14:30:18.789Z,27.20
2022-10-28T14:33:13.069Z,26.20
2022-10-28T14:35:46.253Z,27.40
2022-10-28T14:38:53.262Z,27.90
2022-10-28T14:41:44.567Z,27.40
2022-10-28T14:44:26.934Z,27.20
2022-10-28T14:47:09.696Z,26.50
2022-10-28T14:49:39.426Z,26.50
2022-10-28T14:52:12.295Z,26.00
2022-10-28T14:54:48.670Z,25.60
2022-10-28T14:59:51.947Z,25.00
2022-10-28T15:02:23.441Z,24.70
2022-10-28T15:05:02.669Z,24.50
2022-10-28T15:07:37.768Z,24.30
2022-10-28T15:10:15.831Z,23.80
2022-10-28T15:12:49.003Z,23.50
2022-10-28T15:15:19.727Z,23.30
2022-10-28T15:17:48.049Z,23.40
2022-10-28T15:20:23.946Z,22.90
2022-10-28T15:22:54.620Z,22.90
2022-10-28T15:25:23.650Z,22.50
2022-10-28T15:30:45.773Z,22.30
2022-10-28T15:33:45.480Z,22.10
2022-10-28T15:36:18.457Z,22.10
2022-10-28T15:39:10.014Z,21.80
2022-10-28T15:41:43.450Z,21.80
2022-10-28T15:44:28.410Z,21.60
2022-10-28T15:46:58.359Z,21.40
2022-10-28T15:49:36.017Z,21.20
2022-10-28T15:52:33.695Z,21.00
2022-10-28T15:55:03.024Z,20.90
2022-10-28T15:57:33.018Z,20.80
2022-10-28T16:00:23.299Z,20.50
2022-10-28T16:02:55.986Z,20.30
2022-10-28T16:05:48.356Z,20.30
2022-10-28T16:08:23.174Z,20.10
2022-10-28T16:10:55.081Z,20.00
2022-10-28T16:13:27.431Z,19.90
2022-10-28T16:16:09.191Z,19.80
2022-10-28T16:18:44.108Z,19.80
2022-10-28T16:21:19.071Z,19.70
2022-10-28T16:23:49.103Z,19.60
2022-10-28T16:31:18.117Z,19.50
2022-10-28T16:36:15.510Z,19.40
2022-10-28T16:41:17.652Z,19.20
2022-10-28T16:51:21.534Z,19.00
2022-10-28T16:56:19.270Z,19.00
2022-10-28T17:01:19.649Z,18.90
2022-10-28T17:11:33.996Z,18.60
2022-10-28T17:21:28.425Z,18.40
2022-10-28T17:26:24.889Z,18.30
2022-10-28T17:31:25.094Z,18.10
2022-10-28T17:33:55.373Z,18.10
2022-10-28T17:36:25.078Z,18.00
2022-10-28T17:41:21.492Z,18.00
2022-10-28T17:43:53.156Z,17.90
2022-10-28T17:51:20.171Z,17.80
2022-10-28T17:53:54.457Z,17.70
2022-10-28T17:58:54.392Z,17.70
2022-10-28T18:03:52.991Z,17.60
2022-10-28T18:06:21.494Z,17.60
2022-10-28T18:11:20.498Z,17.60
2022-10-28T18:16:21.233Z,17.60
2022-10-28T18:18:49.457Z,17.50
2022-10-28T18:26:17.091Z,17.50
2022-10-28T18:28:46.174Z,17.50
2022-10-28T18:31:16.153Z,17.40
2022-10-28T18:33:45.746Z,17.40
2022-10-28T18:36:15.864Z,17.40
2022-10-28T18:41:13.915Z,17.40
2022-10-28T18:43:43.761Z,17.40
2022-10-28T18:48:41.085Z,17.40
2022-10-28T18:51:12.129Z,17.30
2022-10-28T18:53:41.675Z,17.30
2022-10-28T18:56:12.632Z,17.30
2022-10-28T19:01:13.216Z,19.60
2022-10-28T19:06:12.374Z,17.20
2022-10-28T19:08:41.377Z,17.20
2022-10-28T19:11:11.400Z,19.50
2022-10-28T19:13:41.426Z,17.20
2022-10-28T19:21:12.847Z,17.10
2022-10-28T19:26:11.069Z,17.00
2022-10-28T19:31:12.155Z,17.00
2022-10-28T19:36:12.144Z,17.10
2022-10-28T19:41:10.842Z,17.10
2022-10-28T19:43:39.132Z,17.10
2022-10-28T19:46:11.520Z,17.10
2022-10-28T19:48:40.703Z,17.10
2022-10-28T19:56:06.499Z,16.90
2022-10-28T20:01:06.510Z,16.90
2022-10-28T20:06:09.424Z,16.80
2022-10-28T20:08:39.044Z,16.80
2022-10-28T20:11:09.454Z,16.80
2022-10-28T20:16:08.179Z,16.70
2022-10-28T20:18:38.537Z,16.70
2022-10-28T20:21:08.461Z,16.90
2022-10-28T20:23:36.925Z,16.60
2022-10-28T20:26:07.287Z,16.50
2022-10-28T20:31:07.981Z,16.50
2022-10-28T20:33:39.269Z,16.40
2022-10-28T20:52:16.874Z,16.60
2022-10-28T20:54:46.223Z,16.70
2022-10-28T20:57:14.291Z,16.70
2022-10-28T20:59:49.646Z,16.70
2022-10-28T21:02:20.962Z,16.70
2022-10-28T21:09:49.471Z,16.60
2022-10-28T21:17:16.269Z,16.50
2022-10-28T21:27:11.198Z,16.30
2022-10-28T21:32:07.596Z,16.20
2022-10-28T21:34:35.757Z,16.20
2022-10-28T21:37:03.788Z,16.20
2022-10-28T21:46:58.371Z,16.00
2022-10-28T21:51:54.872Z,15.90
2022-10-28T21:54:23.068Z,16.00
2022-10-28T21:59:20.863Z,16.10
2022-10-28T22:04:23.269Z,16.20
2022-10-28T22:11:48.305Z,16.30
2022-10-28T22:16:46.184Z,16.30
2022-10-28T22:19:16.214Z,16.40
2022-10-28T22:31:40.077Z,17.00
2022-10-28T22:36:36.859Z,16.90
2022-10-28T22:39:05.029Z,17.00
2022-10-28T22:44:04.654Z,16.90
2022-10-28T22:46:34.188Z,16.90
2022-10-28T22:49:03.863Z,16.90
2022-10-28T22:51:32.713Z,16.80
2022-10-28T22:56:29.402Z,16.80
2022-10-28T22:58:59.345Z,16.80
2022-10-28T23:01:28.773Z,16.80
2022-10-28T23:06:28.740Z,16.70
2022-10-28T23:13:54.638Z,16.70
2022-10-28T23:16:23.871Z,16.50
2022-10-28T23:18:53.277Z,16.50
2022-10-28T23:21:22.739Z,16.30
2022-10-28T23:23:55.777Z,16.20
2022-10-28T23:26:24.401Z,16.20
2022-10-28T23:28:53.719Z,16.10
2022-10-28T23:31:22.729Z,15.90
2022-10-28T23:36:19.142Z,15.80
2022-10-28T23:41:56.531Z,15.90
2022-10-28T23:44:42.825Z,15.90
2022-10-28T23:49:39.305Z,15.90
2022-10-28T23:55:07.202Z,15.80
2022-10-28T23:57:37.376Z,15.60
